Time;durP1;ratioP1;P1;durP2;ratioP2;P2;SDS_P1;SDS_P2;PMS_P1;PMS_P2;Temp;Humidity;BMP_temperature;BMP_pressure;BME280_temperature;BME280_humidity;BME280_pressure;Samples;Min_cycle;Max_cycle;Signal;HPM_P1;HPM_P2
2022/06/24 00:00:36;;;;;;;;;;;;;;;20.95;100.00;100742.75;5227349;28;19908;-60
2022/06/24 00:03:06;;;;;;;;;;;;;;;20.92;100.00;100757.13;5210679;28;19912;-61
2022/06/24 00:05:37;;;;;;;;;;;;;;;20.91;100.00;100759.06;5243655;28;19908;-60
2022/06/24 00:08:07;;;;;;;;;;;;;;;20.82;100.00;100759.09;5244168;28;19919;-60
2022/06/24 00:10:38;;;;;;;;;;;;;;;20.69;100.00;100762.84;5210987;28;19919;-60
2022/06/24 00:13:08;;;;;;;;;;;;;;;20.64;100.00;100775.94;5210931;28;19908;-61
2022/06/24 00:15:39;;;;;;;;;;;;;;;20.45;100.00;100771.59;5228233;28;19954;-60
2022/06/24 00:18:14;;;;;;;;;;;;;;;20.43;100.00;100764.84;5210828;28;20431;-60
2022/06/24 00:20:49;;;;;;;;;;;;;;;20.34;100.00;100762.06;5225736;28;19951;-61
2022/06/24 00:23:21;;;;;;;;;;;;;;;20.30;100.00;100760.28;5227191;28;19909;-60
2022/06/24 00:25:51;;;;;;;;;;;;;;;20.22;100.00;100748.97;5210582;28;20372;-61
2022/06/24 00:28:25;;;;;;;;;;;;;;;20.17;100.00;100749.16;5227926;28;20012;-60
2022/06/24 00:30:56;;;;;;;;;;;;;;;20.06;100.00;100722.38;5226412;28;19909;-59
2022/06/24 00:33:31;;;;;;;;;;;;;;;20.04;100.00;100709.00;5243636;28;19977;-61
2022/06/24 00:36:03;;;;;;;;;;;;;;;19.93;100.00;100699.47;5210068;28;19965;-62
2022/06/24 00:38:35;;;;;;;;;;;;;;;19.90;100.00;100691.94;5209983;28;19916;-62
2022/06/24 00:41:12;;;;;;;;;;;;;;;19.85;100.00;100694.81;5209878;28;19999;-62
2022/06/24 00:43:44;;;;;;;;;;;;;;;19.82;100.00;100709.16;5226281;28;20007;-61
2022/06/24 00:46:18;;;;;;;;;;;;;;;19.76;100.00;100705.78;5203706;28;19921;-62
2022/06/24 00:48:49;;;;;;;;;;;;;;;19.74;100.00;100712.69;5196806;28;19948;-62
2022/06/24 00:51:21;;;;;;;;;;;;;;;19.70;100.00;100715.25;5198930;28;19932;-61
2022/06/24 00:53:52;;;;;;;;;;;;;;;19.64;100.00;100711.06;5188645;28;20373;-62
2022/06/24 00:56:26;;;;;;;;;;;;;;;19.65;100.00;100711.88;5204244;28;19975;-61
2022/06/24 00:58:57;;;;;;;;;;;;;;;19.59;100.00;100703.03;5187608;28;19920;-62
2022/06/24 01:01:32;;;;;;;;;;;;;;;19.58;100.00;100704.16;5206631;28;19909;-61
2022/06/24 01:04:04;;;;;;;;;;;;;;;19.63;100.00;100705.94;5206601;28;20391;-62
2022/06/24 01:06:35;;;;;;;;;;;;;;;19.60;100.00;100687.41;5189101;28;19920;-61
2022/06/24 01:09:07;;;;;;;;;;;;;;;19.52;100.00;100667.88;5188801;28;19912;-62
2022/06/24 01:11:40;;;;;;;;;;;;;;;19.40;100.00;100656.72;5188817;28;19915;-61
2022/06/24 01:14:11;;;;;;;;;;;;;;;19.32;100.00;100652.03;5191562;28;19909;-61
2022/06/24 01:16:42;;;;;;;;;;;;;;;19.26;100.00;100642.38;5188722;28;19915;-63
2022/06/24 01:19:13;;;;;;;;;;;;;;;19.14;100.00;100636.69;5206434;28;19999;-63
2022/06/24 01:21:48;;;;;;;;;;;;;;;19.15;100.00;100649.25;5188571;28;19971;-62
2022/06/24 01:24:22;;;;;;;;;;;;;;;19.15;100.00;100655.53;5188444;28;19928;-61
2022/06/24 01:27:18;;;;;;;;;;;;;;;19.08;100.00;100657.13;5188113;28;19920;-59
2022/06/24 01:29:49;;;;;;;;;;;;;;;19.00;100.00;100653.25;5204588;28;19919;-59
2022/06/24 01:32:20;;;;;;;;;;;;;;;19.01;100.00;100662.28;5187794;28;20003;-61
2022/06/24 01:34:50;;;;;;;;;;;;;;;18.98;100.00;100660.97;5188066;28;19981;-62
2022/06/24 01:37:20;;;;;;;;;;;;;;;18.98;100.00;100660.16;5188186;28;20454;-61
2022/06/24 01:39:50;;;;;;;;;;;;;;;18.98;100.00;100663.72;5204641;28;19951;-61
2022/06/24 01:42:21;;;;;;;;;;;;;;;19.04;100.00;100667.09;5188263;28;20000;-62
2022/06/24 01:44:51;;;;;;;;;;;;;;;19.06;100.00;100659.38;5187867;28;19908;-61
2022/06/24 01:47:21;;;;;;;;;;;;;;;19.10;100.00;100663.88;5199380;28;20000;-59
2022/06/24 01:49:52;;;;;;;;;;;;;;;19.19;100.00;100666.66;5187137;28;20300;-60
2022/06/24 01:52:22;;;;;;;;;;;;;;;19.25;100.00;100672.78;5187791;28;20230;-61
2022/06/24 01:54:53;;;;;;;;;;;;;;;19.31;100.00;100660.56;5207763;28;19909;-61
2022/06/24 01:57:23;;;;;;;;;;;;;;;19.28;100.00;100639.31;5183855;28;19909;-61
2022/06/24 02:08:44;;;;;;;;;;;;;;;19.35;100.00;100577.44;6084347;23;20017;-85
2022/06/24 02:14:06;;;;;;;;;;;;;;;19.40;100.00;100565.53;5156891;28;20066;-83
2022/06/24 02:16:37;;;;;;;;;;;;;;;19.43;100.00;100573.09;5171398;28;20016;-85
2022/06/24 02:19:07;;;;;;;;;;;;;;;19.39;100.00;100567.47;5155926;28;20368;-84
2022/06/24 02:21:38;;;;;;;;;;;;;;;19.39;100.00;100567.47;5168114;28;19921;-83
2022/06/24 02:24:08;;;;;;;;;;;;;;;19.41;100.00;100570.69;5158089;28;20237;-86
2022/06/24 02:26:43;;;;;;;;;;;;;;;19.43;100.00;100568.44;5161083;28;19910;-86
2022/06/24 02:29:13;;;;;;;;;;;;;;;19.43;100.00;100578.59;5167460;28;19909;-83
2022/06/24 02:31:44;;;;;;;;;;;;;;;19.44;100.00;100591.16;5153780;28;19910;-84
2022/06/24 02:34:14;;;;;;;;;;;;;;;19.42;100.00;100585.19;5164283;28;19914;-86
2022/06/24 02:36:44;;;;;;;;;;;;;;;19.42;100.00;100572.31;5161545;28;19936;-85
2022/06/24 02:47:36;;;;;;;;;;;;;;;19.52;100.00;100565.72;5170294;28;20304;-61
2022/06/24 02:50:06;;;;;;;;;;;;;;;19.54;100.00;100567.03;5172503;28;19913;-61
2022/06/24 02:52:36;;;;;;;;;;;;;;;19.57;100.00;100567.50;5151574;28;20005;-59
2022/06/24 02:55:07;;;;;;;;;;;;;;;19.60;100.00;100577.81;5137759;28;19913;-59
2022/06/24 02:57:37;;;;;;;;;;;;;;;19.63;100.00;100601.84;5109936;28;19914;-60
2022/06/24 03:00:08;;;;;;;;;;;;;;;19.62;100.00;100601.03;5136803;28;19910;-60
2022/06/24 03:05:47;;;;;;;;;;;;;;;19.55;100.00;100592.47;5126589;28;19925;-60
2022/06/24 03:08:18;;;;;;;;;;;;;;;19.55;100.00;100604.25;5118112;29;20267;-60
2022/06/24 03:10:52;;;;;;;;;;;;;;;19.48;100.00;100598.41;5117621;28;20429;-60
2022/06/24 03:13:22;;;;;;;;;;;;;;;19.45;100.00;100601.78;5088265;23;1176145;-82
2022/06/24 03:15:53;;;;;;;;;;;;;;;19.44;100.00;100602.09;5121746;28;19923;-83
2022/06/24 03:18:24;;;;;;;;;;;;;;;19.42;100.00;100610.63;5128634;28;19923;-82
2022/06/24 03:20:54;;;;;;;;;;;;;;;19.39;100.00;100607.72;5115162;29;19913;-82
2022/06/24 03:23:24;;;;;;;;;;;;;;;19.37;100.00;100619.00;5132566;28;19903;-82
2022/06/24 03:25:55;;;;;;;;;;;;;;;19.37;100.00;100619.00;5132651;28;19907;-82
2022/06/24 03:28:25;;;;;;;;;;;;;;;19.37;100.00;100632.69;5132629;28;19907;-82
2022/06/24 03:30:55;;;;;;;;;;;;;;;19.34;100.00;100636.09;5131018;28;19956;-83
2022/06/24 03:33:26;;;;;;;;;;;;;;;19.38;100.00;100630.75;5117827;29;20400;-84
2022/06/24 03:35:56;;;;;;;;;;;;;;;19.41;100.00;100636.41;5097281;29;19910;-84
2022/06/24 03:38:26;;;;;;;;;;;;;;;19.44;100.00;100633.03;5115005;29;19921;-84
2022/06/24 03:40:56;;;;;;;;;;;;;;;19.41;100.00;100625.47;5113755;29;20086;-84
2022/06/24 03:43:27;;;;;;;;;;;;;;;19.38;100.00;100626.09;5097045;29;19911;-83
2022/06/24 03:46:03;;;;;;;;;;;;;;;19.25;100.00;100629.00;5115945;29;19914;-84
2022/06/24 03:48:33;;;;;;;;;;;;;;;19.25;100.00;100629.00;5115613;29;19911;-84
2022/06/24 03:51:04;;;;;;;;;;;;;;;19.29;100.00;100633.50;5116090;29;19911;-84
2022/06/24 03:53:34;;;;;;;;;;;;;;;19.32;100.00;100632.06;5114941;29;20304;-83
2022/06/24 03:56:04;;;;;;;;;;;;;;;19.27;100.00;100627.56;5097117;29;19933;-84
2022/06/24 03:58:35;;;;;;;;;;;;;;;19.33;100.00;100628.22;5106393;29;19899;-82
2022/06/24 04:01:05;;;;;;;;;;;;;;;19.34;100.00;100630.63;5111153;29;19915;-82
2022/06/24 04:03:35;;;;;;;;;;;;;;;19.37;100.00;100627.22;5126965;29;19959;-83
2022/06/24 04:06:05;;;;;;;;;;;;;;;19.36;100.00;100620.13;5127833;29;19918;-82
2022/06/24 04:08:36;;;;;;;;;;;;;;;19.33;100.00;100629.00;5110457;29;19995;-84
2022/06/24 04:11:10;;;;;;;;;;;;;;;19.33;100.00;100618.06;5115134;29;20009;-84
2022/06/24 04:13:40;;;;;;;;;;;;;;;19.40;100.00;100620.31;5097262;29;19921;-84
2022/06/24 04:16:11;;;;;;;;;;;;;;;19.43;100.00;100617.72;5097871;29;20329;-84
2022/06/24 04:18:41;;;;;;;;;;;;;;;19.39;100.00;100611.28;5114813;29;19982;-84
2022/06/24 04:21:12;;;;;;;;;;;;;;;19.39;100.00;100610.47;5115057;29;19917;-83
2022/06/24 04:23:44;;;;;;;;;;;;;;;19.44;100.00;100613.06;5114246;29;19941;-84
2022/06/24 04:26:14;;;;;;;;;;;;;;;19.44;100.00;100618.53;5115412;29;19918;-83
2022/06/24 04:28:45;;;;;;;;;;;;;;;19.44;100.00;100607.59;5097860;29;19911;-83
2022/06/24 04:31:15;;;;;;;;;;;;;;;19.45;100.00;100611.94;5115082;29;19918;-84
2022/06/24 04:33:46;;;;;;;;;;;;;;;19.45;100.00;100610.00;5114797;29;19917;-84
2022/06/24 04:36:16;;;;;;;;;;;;;;;19.44;100.00;100613.88;5114962;29;19911;-84
2022/06/24 04:38:48;;;;;;;;;;;;;;;19.44;100.00;100621.28;5113815;29;19981;-84
2022/06/24 04:41:18;;;;;;;;;;;;;;;19.51;100.00;100627.13;5097789;29;19915;-84
2022/06/24 04:43:48;;;;;;;;;;;;;;;19.50;100.00;100625.47;5112724;29;19910;-84
2022/06/24 04:46:19;;;;;;;;;;;;;;;19.47;100.00;100624.19;5098805;29;19958;-84
2022/06/24 04:48:49;;;;;;;;;;;;;;;19.50;100.00;100636.44;5099986;29;20293;-82
2022/06/24 04:51:20;;;;;;;;;;;;;;;19.48;100.00;100641.41;5124734;29;19917;-84
2022/06/24 04:53:50;;;;;;;;;;;;;;;19.38;100.00;100641.72;5127596;29;19958;-84
2022/06/24 04:56:21;;;;;;;;;;;;;;;19.11;100.00;100640.88;5099334;29;20385;-84
2022/06/24 04:58:51;;;;;;;;;;;;;;;18.87;100.00;100633.06;5096738;29;19911;-85
2022/06/24 05:01:21;;;;;;;;;;;;;;;18.75;100.00;100643.84;5115136;29;20008;-84
2022/06/24 05:03:51;;;;;;;;;;;;;;;18.46;100.00;100644.31;5110659;29;19911;-85
2022/06/24 05:06:22;;;;;;;;;;;;;;;18.11;100.00;100646.03;5110828;29;20391;-85
2022/06/24 05:08:52;;;;;;;;;;;;;;;17.75;100.00;100639.81;5110563;29;19911;-85
2022/06/24 05:11:22;;;;;;;;;;;;;;;17.66;100.00;100663.50;5093119;29;19918;-84
2022/06/24 05:13:53;;;;;;;;;;;;;;;17.67;100.00;100660.47;5120031;29;20018;-84
2022/06/24 05:16:23;;;;;;;;;;;;;;;17.69;100.00;100660.16;5109613;29;20195;-84
2022/06/24 05:18:53;;;;;;;;;;;;;;;17.71;100.00;100672.38;5125412;29;19914;-84
2022/06/24 05:21:24;;;;;;;;;;;;;;;17.67;100.00;100665.09;5107622;29;19918;-83
2022/06/24 05:23:54;;;;;;;;;;;;;;;17.53;100.00;100660.47;5126945;29;19918;-84
2022/06/24 05:26:24;;;;;;;;;;;;;;;17.51;100.00;100650.97;5127126;29;20178;-84
2022/06/24 05:28:55;;;;;;;;;;;;;;;17.48;100.00;100646.94;5101208;29;20006;-84
2022/06/24 05:31:25;;;;;;;;;;;;;;;17.53;100.00;100654.22;5095704;29;19910;-84
2022/06/24 05:33:55;;;;;;;;;;;;;;;17.61;100.00;100650.75;5096515;29;19910;-84
2022/06/24 05:36:25;;;;;;;;;;;;;;;17.77;100.00;100657.50;5095411;29;19925;-84
2022/06/24 05:38:56;;;;;;;;;;;;;;;17.93;100.00;100662.59;5111646;29;19915;-84
2022/06/24 05:41:30;;;;;;;;;;;;;;;17.93;100.00;100657.13;5114098;29;20381;-85
2022/06/24 05:44:00;;;;;;;;;;;;;;;17.87;100.00;100648.25;5116741;29;19910;-84
2022/06/24 05:46:31;;;;;;;;;;;;;;;17.87;100.00;100648.25;5120503;29;19965;-85
2022/06/24 05:49:01;;;;;;;;;;;;;;;17.89;100.00;100654.22;5101475;29;19911;-85
2022/06/24 05:51:34;;;;;;;;;;;;;;;17.99;100.00;100643.03;5116587;29;19950;-86
2022/06/24 05:56:54;;;;;;;;;;;;;;;18.05;100.00;100633.59;5115363;29;19938;-84
2022/06/24 05:59:24;;;;;;;;;;;;;;;18.06;100.00;100634.41;5114804;29;19914;-85
2022/06/24 06:01:54;;;;;;;;;;;;;;;18.12;100.00;100633.97;5096758;29;19910;-85
2022/06/24 06:04:25;;;;;;;;;;;;;;;18.17;100.00;100630.31;5099742;29;19914;-84
2022/06/24 06:06:55;;;;;;;;;;;;;;;18.25;100.00;100631.47;5099101;29;19911;-84
2022/06/24 06:09:25;;;;;;;;;;;;;;;18.30;100.00;100628.59;5112375;29;19918;-84
2022/06/24 06:11:56;;;;;;;;;;;;;;;18.39;100.00;100615.78;5111493;29;20369;-84
2022/06/24 06:14:27;;;;;;;;;;;;;;;18.43;100.00;100630.47;5113946;29;19917;-84
2022/06/24 06:16:57;;;;;;;;;;;;;;;18.46;100.00;100627.91;5112378;29;20342;-84
2022/06/24 06:19:27;;;;;;;;;;;;;;;18.51;100.00;100624.19;5093178;29;19947;-83
2022/06/24 06:21:58;;;;;;;;;;;;;;;18.54;100.00;100635.31;5108804;29;20369;-83
2022/06/24 06:24:30;;;;;;;;;;;;;;;18.60;100.00;100638.75;5110945;29;19934;-84
2022/06/24 06:27:00;;;;;;;;;;;;;;;18.52;100.00;100643.03;5094249;29;19910;-84
2022/06/24 06:29:31;;;;;;;;;;;;;;;18.58;100.00;100645.63;5112555;29;20334;-82
2022/06/24 06:32:02;;;;;;;;;;;;;;;18.59;100.00;100649.97;5113753;29;19911;-83
2022/06/24 06:34:32;;;;;;;;;;;;;;;18.68;100.00;100646.22;5113751;29;19965;-84
2022/06/24 06:37:03;;;;;;;;;;;;;;;18.85;100.00;100645.47;5114808;29;19911;-85
2022/06/24 06:39:33;;;;;;;;;;;;;;;18.96;100.00;100646.00;5096819;29;19966;-84
2022/06/24 06:42:04;;;;;;;;;;;;;;;19.11;100.00;100645.53;5113558;29;19918;-83
2022/06/24 06:44:34;;;;;;;;;;;;;;;19.23;100.00;100645.72;5113783;29;19915;-84
2022/06/24 06:47:04;;;;;;;;;;;;;;;19.24;100.00;100652.81;5097793;29;19911;-84
2022/06/24 06:49:35;;;;;;;;;;;;;;;19.32;100.00;100648.50;5096459;29;19958;-84
2022/06/24 06:52:05;;;;;;;;;;;;;;;19.49;100.00;100654.78;5096945;29;19915;-84
2022/06/24 06:54:37;;;;;;;;;;;;;;;19.62;100.00;100647.59;5114949;29;20018;-86
2022/06/24 06:57:07;;;;;;;;;;;;;;;19.63;100.00;100654.69;5099173;29;20365;-84
2022/06/24 06:59:37;;;;;;;;;;;;;;;19.77;100.00;100646.28;5098875;29;19919;-85
2022/06/24 07:02:07;;;;;;;;;;;;;;;19.89;100.00;100646.47;5100074;29;19914;-85
2022/06/24 07:04:38;;;;;;;;;;;;;;;20.11;100.00;100645.47;5115865;29;19911;-85
2022/06/24 07:07:08;;;;;;;;;;;;;;;20.31;100.00;100652.19;5099647;29;19915;-84
2022/06/24 07:09:38;;;;;;;;;;;;;;;20.47;100.00;100661.56;5098455;29;20369;-85
2022/06/24 07:12:09;;;;;;;;;;;;;;;20.59;100.00;100663.59;5126038;29;19985;-83
2022/06/24 07:14:40;;;;;;;;;;;;;;;20.62;100.00;100661.00;5111837;29;19974;-85
2022/06/24 07:17:10;;;;;;;;;;;;;;;20.64;100.00;100661.50;5101192;29;19911;-84
2022/06/24 07:19:40;;;;;;;;;;;;;;;20.62;100.00;100652.78;5094131;29;19970;-84
2022/06/24 07:22:11;;;;;;;;;;;;;;;20.60;100.00;100660.53;5094073;29;19997;-85
2022/06/24 07:24:41;;;;;;;;;;;;;;;20.61;100.00;100661.34;5094947;29;20142;-85
2022/06/24 07:27:11;;;;;;;;;;;;;;;20.55;100.00;100660.69;5096160;29;19974;-84
2022/06/24 07:29:41;;;;;;;;;;;;;;;20.56;100.00;100654.09;5115815;29;20306;-84
2022/06/24 07:32:13;;;;;;;;;;;;;;;20.62;100.00;100647.28;5124513;29;19910;-84
2022/06/24 07:34:43;;;;;;;;;;;;;;;20.83;100.00;100637.19;5116642;29;19917;-85
2022/06/24 07:37:14;;;;;;;;;;;;;;;21.13;100.00;100637.19;5122886;29;19910;-87
2022/06/24 07:39:44;;;;;;;;;;;;;;;21.61;100.00;100638.69;5103777;29;19921;-88
2022/06/24 07:42:14;;;;;;;;;;;;;;;21.88;100.00;100635.38;5118218;29;19915;-88
2022/06/24 07:44:45;;;;;;;;;;;;;;;21.75;100.00;100634.50;5100120;29;19962;-89
2022/06/24 07:47:15;;;;;;;;;;;;;;;21.93;100.00;100639.88;5117264;29;19953;-88
2022/06/24 07:49:46;;;;;;;;;;;;;;;22.07;100.00;100641.22;5098900;29;20425;-89
2022/06/24 07:52:16;;;;;;;;;;;;;;;22.17;100.00;100640.00;5099304;29;19933;-89
2022/06/24 07:54:46;;;;;;;;;;;;;;;22.27;100.00;100641.50;5117039;29;20003;-88
2022/06/24 07:57:16;;;;;;;;;;;;;;;22.44;100.00;100638.56;5114365;29;20101;-89
2022/06/24 07:59:47;;;;;;;;;;;;;;;22.56;100.00;100635.81;5096040;29;19929;-89
2022/06/24 08:02:17;;;;;;;;;;;;;;;22.54;100.00;100640.84;5093509;29;19950;-88
2022/06/24 08:04:49;;;;;;;;;;;;;;;22.55;100.00;100645.22;5110107;29;20273;-89
2022/06/24 08:07:20;;;;;;;;;;;;;;;22.50;100.00;100645.47;5093733;29;19917;-86
2022/06/24 08:09:50;;;;;;;;;;;;;;;22.40;100.00;100651.41;5113703;29;19911;-86
2022/06/24 08:12:20;;;;;;;;;;;;;;;22.46;100.00;100642.59;5100677;29;19921;-88
2022/06/24 08:14:51;;;;;;;;;;;;;;;22.59;100.00;100648.91;5093720;29;19915;-85
2022/06/24 08:17:21;;;;;;;;;;;;;;;22.72;100.00;100655.22;5110163;29;19970;-84
2022/06/24 08:19:51;;;;;;;;;;;;;;;22.80;100.00;100655.16;5109866;29;19919;-84
2022/06/24 08:22:22;;;;;;;;;;;;;;;22.88;100.00;100654.22;5092922;29;19933;-84
2022/06/24 08:24:52;;;;;;;;;;;;;;;22.99;100.00;100653.78;5092195;29;19911;-85
2022/06/24 08:27:22;;;;;;;;;;;;;;;23.09;100.00;100648.63;5092998;29;19911;-84
2022/06/24 08:29:52;;;;;;;;;;;;;;;23.10;100.00;100641.16;5110463;29;19915;-84
2022/06/24 08:32:23;;;;;;;;;;;;;;;22.96;100.00;100648.97;5110386;29;20350;-84
2022/06/24 08:34:53;;;;;;;;;;;;;;;22.97;100.00;100643.09;5084760;29;19911;-84
2022/06/24 08:37:23;;;;;;;;;;;;;;;23.02;100.00;100637.38;5116493;29;19915;-83
2022/06/24 08:39:54;;;;;;;;;;;;;;;23.13;100.00;100648.72;5105758;29;19922;-82
2022/06/24 08:42:27;;;;;;;;;;;;;;;23.23;100.00;100645.50;5126061;29;19942;-83
2022/06/24 08:45:00;;;;;;;;;;;;;;;23.12;100.00;100633.34;5101365;29;19917;-84
2022/06/24 08:47:30;;;;;;;;;;;;;;;23.15;100.00;100638.97;5095772;29;19914;-82
2022/06/24 08:50:02;;;;;;;;;;;;;;;23.10;100.00;100627.41;5111883;29;19938;-82
2022/06/24 08:52:33;;;;;;;;;;;;;;;23.01;100.00;100633.00;5111051;29;19910;-82
2022/06/24 08:55:03;;;;;;;;;;;;;;;23.13;100.00;100627.47;5110107;29;19966;-83
2022/06/24 08:57:34;;;;;;;;;;;;;;;23.43;100.00;100628.00;5109622;29;19994;-83
2022/06/24 09:00:04;;;;;;;;;;;;;;;23.53;100.00;100635.03;5109399;29;19918;-82
2022/06/24 09:02:35;;;;;;;;;;;;;;;23.52;100.00;100634.22;5109361;29;19911;-82
2022/06/24 09:05:09;;;;;;;;;;;;;;;23.44;100.00;100635.13;5109251;29;19961;-83
2022/06/24 09:07:39;;;;;;;;;;;;;;;23.28;100.00;100634.25;5092442;29;19910;-83
2022/06/24 09:10:12;;;;;;;;;;;;;;;23.16;100.00;100635.06;5109437;29;19918;-83
2022/06/24 09:12:43;;;;;;;;;;;;;;;22.81;100.00;100645.72;5110668;23;19929;-84
2022/06/24 09:15:14;;;;;;;;;;;;;;;22.33;100.00;100649.19;5147879;28;19940;-84
2022/06/24 09:17:44;;;;;;;;;;;;;;;21.68;100.00;100660.91;5145160;28;19917;-87
2022/06/24 09:20:17;;;;;;;;;;;;;;;20.70;100.00;100675.84;5171895;28;19937;-84
2022/06/24 09:22:48;;;;;;;;;;;;;;;20.08;100.00;100673.53;5159555;28;20020;-84
2022/06/24 09:25:19;;;;;;;;;;;;;;;19.81;100.00;100677.41;5159875;28;19910;-84
2022/06/24 09:27:49;;;;;;;;;;;;;;;19.59;100.00;100666.59;5143696;28;19910;-84
2022/06/24 09:30:20;;;;;;;;;;;;;;;19.58;100.00;100667.72;5161466;28;19917;-83
2022/06/24 09:32:54;;;;;;;;;;;;;;;19.67;100.00;100654.81;5159730;28;20170;-82
2022/06/24 09:35:24;;;;;;;;;;;;;;;19.85;100.00;100657.25;5159624;28;19910;-81
2022/06/24 09:37:55;;;;;;;;;;;;;;;19.92;100.00;100612.94;5175589;28;19948;-82
2022/06/24 09:40:28;;;;;;;;;;;;;;;20.61;100.00;100645.69;5159324;28;19910;-83
2022/06/24 09:43:00;;;;;;;;;;;;;;;21.05;100.00;100633.38;5157948;28;19910;-84
2022/06/24 09:45:43;;;;;;;;;;;;;;;21.69;100.00;100626.81;5159871;28;19910;-83
2022/06/24 09:48:35;;;;;;;;;;;;;;;22.09;100.00;100616.13;5158045;28;19914;-83
2022/06/24 09:51:06;;;;;;;;;;;;;;;22.52;100.00;100618.41;5154528;28;19910;-82
2022/06/24 09:53:39;;;;;;;;;;;;;;;22.69;100.00;100622.88;5152865;28;19910;-83
2022/06/24 09:56:10;;;;;;;;;;;;;;;22.87;100.00;100625.09;5157162;28;19914;-83
2022/06/24 10:00:40;;;;;;;;;;;;;;;22.86;100.00;100622.69;5158884;28;19949;-83
2022/06/24 10:01:35;;;;;;;;;;;;;;;22.68;100.00;100626.78;5157486;28;20137;-83
2022/06/24 10:04:08;;;;;;;;;;;;;;;22.52;100.00;100629.41;5159193;28;19898;-84
2022/06/24 10:06:41;;;;;;;;;;;;;;;22.26;100.00;100626.94;5157937;28;19937;-84
2022/06/24 10:09:12;;;;;;;;;;;;;;;22.15;100.00;100632.06;5145410;28;19920;-84
2022/06/24 10:11:43;;;;;;;;;;;;;;;22.24;100.00;100635.53;5139365;28;19946;-85
2022/06/24 10:14:13;;;;;;;;;;;;;;;22.28;100.00;100645.84;5155357;28;19981;-84
2022/06/24 10:16:47;;;;;;;;;;;;;;;22.34;100.00;100653.56;5155451;28;20379;-84
2022/06/24 10:19:19;;;;;;;;;;;;;;;22.42;100.00;100657.38;5154882;28;19910;-83
2022/06/24 10:21:49;;;;;;;;;;;;;;;22.23;100.00;100653.16;5155251;28;19910;-85
2022/06/24 10:24:20;;;;;;;;;;;;;;;22.25;100.00;100652.84;5138919;28;19925;-84
2022/06/24 10:26:51;;;;;;;;;;;;;;;22.25;100.00;100655.59;5138857;28;19916;-84
2022/06/24 10:29:23;;;;;;;;;;;;;;;22.20;100.00;100661.31;5141175;28;19910;-85
2022/06/24 10:31:54;;;;;;;;;;;;;;;22.08;100.00;100653.81;5142620;28;20348;-85
2022/06/24 10:34:31;;;;;;;;;;;;;;;22.11;100.00;100650.41;5158981;28;19910;-84
2022/06/24 10:37:02;;;;;;;;;;;;;;;22.24;100.00;100652.03;5157888;28;19914;-85
2022/06/24 10:39:34;;;;;;;;;;;;;;;22.33;100.00;100651.94;5160586;28;19920;-85
2022/06/24 10:42:05;;;;;;;;;;;;;;;22.54;100.00;100657.38;5161641;28;19910;-86
2022/06/24 10:44:37;;;;;;;;;;;;;;;22.66;100.00;100646.41;5142244;28;19910;-85
2022/06/24 10:47:08;;;;;;;;;;;;;;;23.03;100.00;100649.19;5160945;28;19965;-85
2022/06/24 10:49:54;;;;;;;;;;;;;;;23.26;100.00;100650.31;5142708;28;19917;-86
2022/06/24 10:52:47;;;;;;;;;;;;;;;23.50;100.00;100654.97;5159605;28;19911;-86
2022/06/24 10:55:18;;;;;;;;;;;;;;;23.54;100.00;100650.41;5143091;28;19917;-86
2022/06/24 10:57:48;;;;;;;;;;;;;;;23.61;100.00;100647.06;5141902;28;19914;-86
2022/06/24 11:00:29;;;;;;;;;;;;;;;23.57;100.00;100652.47;5159437;28;19910;-85
2022/06/24 11:03:02;;;;;;;;;;;;;;;23.92;100.00;100644.44;5157623;28;19910;-86
2022/06/24 11:05:36;;;;;;;;;;;;;;;24.15;100.00;100637.19;5140222;28;19910;-86
2022/06/24 11:08:13;;;;;;;;;;;;;;;24.36;100.00;100630.66;5157721;28;19914;-86
2022/06/24 11:10:44;;;;;;;;;;;;;;;24.40;100.00;100626.84;5145369;28;20000;-85
2022/06/24 11:13:15;;;;;;;;;;;;;;;24.48;100.00;100631.41;5153287;28;19921;-85
2022/06/24 11:15:47;;;;;;;;;;;;;;;24.62;100.00;100636.47;5163304;28;19953;-87
2022/06/24 11:18:23;;;;;;;;;;;;;;;24.72;100.00;100637.91;5141123;28;19922;-84
2022/06/24 11:21:00;;;;;;;;;;;;;;;24.99;100.00;100633.47;5141182;28;19920;-85
2022/06/24 11:23:31;;;;;;;;;;;;;;;25.32;100.00;100627.50;5140696;28;19917;-86
2022/06/24 11:26:06;;;;;;;;;;;;;;;25.55;100.00;100625.63;5154404;28;19977;-85
2022/06/24 11:28:37;;;;;;;;;;;;;;;25.28;100.00;100618.31;5155135;28;19910;-85
2022/06/24 11:31:21;;;;;;;;;;;;;;;25.32;100.00;100620.00;5155043;28;19916;-83
2022/06/24 11:34:07;;;;;;;;;;;;;;;25.69;100.00;100630.72;5154556;28;19910;-85
2022/06/24 11:36:38;;;;;;;;;;;;;;;25.93;100.00;100624.88;5155782;28;19940;-85
2022/06/24 11:39:09;;;;;;;;;;;;;;;26.13;100.00;100623.69;5154588;28;19910;-85
2022/06/24 11:41:45;;;;;;;;;;;;;;;26.09;100.00;100620.03;5154073;28;19913;-85
2022/06/24 11:44:15;;;;;;;;;;;;;;;26.19;100.00;100627.75;5137371;28;19910;-85
2022/06/24 11:46:49;;;;;;;;;;;;;;;26.38;100.00;100626.94;5155510;28;20410;-85
2022/06/24 11:49:22;;;;;;;;;;;;;;;26.50;100.00;100617.66;5154526;28;19917;-84
2022/06/24 11:51:52;;;;;;;;;;;;;;;26.47;100.00;100618.38;5137392;28;19910;-86
2022/06/24 11:54:27;;;;;;;;;;;;;;;26.43;100.00;100617.50;5154776;28;20016;-86
2022/06/24 11:56:58;;;;;;;;;;;;;;;26.65;100.00;100611.16;5138127;28;19914;-86
2022/06/24 11:59:29;;;;;;;;;;;;;;;27.09;100.00;100610.69;5137883;28;20453;-86
2022/06/24 12:02:00;;;;;;;;;;;;;;;27.59;100.00;100606.66;5122920;28;19914;-85
2022/06/24 12:04:31;;;;;;;;;;;;;;;27.79;100.00;100605.28;5137042;28;19910;-86
2022/06/24 12:07:05;;;;;;;;;;;;;;;27.62;100.00;100600.34;5137699;28;19920;-87
2022/06/24 12:09:37;;;;;;;;;;;;;;;27.42;100.00;100593.34;5155253;28;19910;-86
2022/06/24 12:12:12;;;;;;;;;;;;;;;27.08;100.00;100598.00;5138606;28;19936;-87
2022/06/24 12:14:53;;;;;;;;;;;;;;;26.94;100.00;100581.94;5137299;28;19910;-87
2022/06/24 12:17:23;;;;;;;;;;;;;;;26.79;100.00;100585.66;5165332;28;19921;-86
2022/06/24 12:20:04;;;;;;;;;;;;;;;26.89;100.00;100591.34;5174709;28;19909;-87
2022/06/24 12:22:34;;;;;;;;;;;;;;;26.85;100.00;100584.97;5156853;28;19910;-87
2022/06/24 12:25:07;;;;;;;;;;;;;;;26.77;100.00;100586.03;5157159;28;19948;-87
2022/06/24 12:27:40;;;;;;;;;;;;;;;26.86;100.00;100589.31;5174931;28;19916;-87
2022/06/24 12:30:21;;;;;;;;;;;;;;;26.91;100.00;100579.91;5157668;28;20624;-88
2022/06/24 12:32:52;;;;;;;;;;;;;;;27.03;100.00;100571.41;5156475;28;19909;-87
2022/06/24 12:35:33;;;;;;;;;;;;;;;27.48;100.00;100587.06;5176276;28;19910;-87
2022/06/24 12:38:04;;;;;;;;;;;;;;;27.72;100.00;100543.41;5176749;28;19925;-87
2022/06/24 12:40:34;;;;;;;;;;;;;;;28.24;100.00;100586.78;5157976;28;19909;-87
2022/06/24 12:43:07;;;;;;;;;;;;;;;28.52;100.00;100583.44;5175300;28;19916;-87
2022/06/24 12:45:38;;;;;;;;;;;;;;;28.66;100.00;100582.75;5175167;28;20537;-87
2022/06/24 12:50:58;;;;;;;;;;;;;;;28.40;100.00;100595.66;5174566;28;20093;-87
2022/06/24 12:53:29;;;;;;;;;;;;;;;28.53;100.00;100591.41;5175285;28;19910;-87
2022/06/24 12:56:01;;;;;;;;;;;;;;;28.67;100.00;100601.81;5160436;28;19909;-88
2022/06/24 12:58:32;;;;;;;;;;;;;;;28.29;100.00;100600.31;5176092;28;20375;-87
2022/06/24 13:01:02;;;;;;;;;;;;;;;28.39;100.00;100601.59;5177059;28;20284;-84
2022/06/24 13:03:33;;;;;;;;;;;;;;;28.45;100.00;100600.06;5172633;28;20016;-84
2022/06/24 13:06:03;;;;;;;;;;;;;;;28.47;100.00;100606.03;5156831;28;19914;-85
2022/06/24 13:08:33;;;;;;;;;;;;;;;28.88;98.25;100598.44;5175148;28;19949;-85
2022/06/24 13:11:03;;;;;;;;;;;;;;;28.99;97.33;100604.06;5175520;28;19917;-86
2022/06/24 13:13:34;;;;;;;;;;;;;;;29.06;96.70;100604.13;5176276;28;20057;-84
2022/06/24 13:16:04;;;;;;;;;;;;;;;28.58;97.21;100606.13;5178662;28;20174;-85
2022/06/24 13:18:35;;;;;;;;;;;;;;;28.88;97.36;100603.97;5161780;28;19913;-84